createdAt,value
2023-05-24T00:02:00.079Z,46.05
2023-05-24T00:04:30.558Z,45.95
2023-05-24T00:06:59.179Z,45.97
2023-05-24T00:09:28.018Z,45.98
2023-05-24T00:11:56.718Z,46.17
2023-05-24T00:14:25.917Z,46.36
2023-05-24T00:16:54.564Z,46.58
2023-05-24T00:19:23.788Z,46.90
2023-05-24T00:21:52.363Z,47.20
2023-05-24T00:24:21.383Z,47.71
2023-05-24T00:26:49.859Z,48.37
2023-05-24T00:29:18.587Z,48.39
2023-05-24T00:31:47.032Z,48.30
2023-05-24T00:34:16.006Z,48.46
2023-05-24T00:36:46.963Z,48.92
2023-05-24T00:39:17.810Z,49.19
2023-05-24T00:41:46.297Z,49.41
2023-05-24T00:44:15.208Z,49.54
2023-05-24T00:46:43.729Z,49.47
2023-05-24T00:49:12.642Z,49.67
2023-05-24T00:51:41.193Z,49.63
2023-05-24T00:54:10.106Z,49.53
2023-05-24T00:56:38.633Z,49.45
2023-05-24T00:59:07.815Z,49.38
2023-05-24T01:01:37.566Z,49.48
2023-05-24T01:04:07.805Z,49.47
2023-05-24T01:07:08.305Z,49.80
2023-05-24T01:09:58.802Z,49.82
2023-05-24T01:12:51.692Z,50.10
2023-05-24T01:15:45.078Z,50.27
2023-05-24T01:18:26.297Z,50.22
2023-05-24T01:21:39.042Z,50.35
2023-05-24T01:24:44.812Z,50.92
2023-05-24T01:27:13.729Z,50.67
2023-05-24T01:29:42.154Z,50.72
2023-05-24T01:32:11.064Z,50.82
2023-05-24T01:34:41.287Z,50.96
2023-05-24T01:37:10.954Z,50.77
2023-05-24T01:39:41.558Z,50.87
2023-05-24T01:42:25.075Z,50.30
2023-05-24T01:45:07.820Z,50.10
2023-05-24T01:47:59.101Z,50.88
2023-05-24T01:50:33.511Z,50.44
2023-05-24T01:53:08.120Z,50.29
2023-05-24T01:55:36.693Z,50.11
2023-05-24T01:58:06.125Z,50.06
2023-05-24T02:00:34.890Z,50.32
2023-05-24T02:03:03.823Z,50.30
2023-05-24T02:05:35.541Z,50.04
2023-05-24T02:08:08.056Z,50.75
2023-05-24T02:10:39.785Z,51.01
2023-05-24T02:13:08.742Z,50.62
2023-05-24T02:15:37.318Z,50.84
2023-05-24T02:18:08.552Z,50.96
2023-05-24T02:20:37.359Z,51.22
2023-05-24T02:23:07.208Z,51.04
2023-05-24T02:25:35.725Z,51.20
2023-05-24T02:28:04.470Z,51.35
2023-05-24T02:30:32.901Z,52.01
2023-05-24T02:33:02.282Z,52.21
2023-05-24T02:35:30.981Z,52.01
2023-05-24T02:38:00.042Z,52.06
2023-05-24T02:40:28.552Z,51.92
2023-05-24T02:42:57.267Z,51.79
2023-05-24T02:45:25.868Z,52.41
2023-05-24T02:47:54.609Z,52.82
2023-05-24T02:50:23.122Z,52.57
2023-05-24T02:52:51.909Z,52.39
2023-05-24T02:55:20.770Z,52.77
2023-05-24T02:57:49.539Z,53.26
2023-05-24T03:00:18.809Z,53.34
2023-05-24T03:02:51.501Z,53.30
2023-05-24T03:05:20.196Z,54.06
2023-05-24T03:07:49.297Z,54.08
2023-05-24T03:10:17.894Z,54.70
2023-05-24T03:12:47.496Z,54.99
2023-05-24T03:15:17.885Z,55.23
2023-05-24T03:17:48.403Z,55.16
2023-05-24T03:20:18.470Z,54.77
2023-05-24T03:22:47.878Z,55.00
2023-05-24T03:25:17.471Z,55.12
2023-05-24T03:27:47.051Z,55.41
2023-05-24T03:30:16.578Z,55.69
2023-05-24T03:32:55.201Z,55.89
2023-05-24T03:35:23.921Z,56.02
2023-05-24T03:37:53.618Z,55.71
2023-05-24T03:40:22.909Z,55.86
2023-05-24T03:43:00.609Z,56.08
2023-05-24T03:46:05.222Z,56.01
2023-05-24T03:48:34.221Z,56.01
2023-05-24T03:51:02.771Z,56.32
2023-05-24T03:53:32.529Z,56.77
2023-05-24T03:56:01.679Z,56.89
2023-05-24T03:58:31.553Z,57.20
2023-05-24T04:01:00.221Z,57.42
2023-05-24T04:03:29.227Z,57.07
2023-05-24T04:05:57.794Z,57.14
2023-05-24T04:08:26.782Z,56.93
2023-05-24T04:10:55.364Z,57.61
2023-05-24T04:13:24.242Z,56.96
2023-05-24T04:15:53.006Z,57.24
2023-05-24T04:18:22.699Z,56.67
2023-05-24T04:20:51.284Z,56.49
2023-05-24T04:23:22.278Z,55.99
2023-05-24T04:25:51.283Z,55.89
2023-05-24T04:28:22.448Z,56.18
2023-05-24T04:30:52.502Z,56.20
2023-05-24T04:33:22.643Z,55.65
2023-05-24T04:35:53.070Z,55.76
2023-05-24T04:38:22.787Z,56.13
2023-05-24T04:40:51.251Z,56.04
2023-05-24T04:43:20.428Z,55.74
2023-05-24T04:45:49.078Z,55.48
2023-05-24T04:48:18.548Z,55.41
2023-05-24T04:50:47.893Z,55.66
2023-05-24T04:53:17.117Z,55.58
2023-05-24T04:55:45.923Z,55.47
2023-05-24T04:58:15.419Z,55.20
2023-05-24T05:00:44.882Z,55.00
2023-05-24T05:03:14.122Z,54.48
2023-05-24T05:05:42.888Z,54.70
2023-05-24T05:08:11.915Z,54.46
2023-05-24T05:10:41.394Z,54.29
2023-05-24T05:13:10.606Z,54.27
2023-05-24T05:15:40.915Z,54.50
2023-05-24T05:18:11.782Z,54.42
2023-05-24T05:20:41.083Z,54.40
2023-05-24T05:23:10.403Z,54.36
2023-05-24T05:25:39.064Z,54.13
2023-05-24T05:28:08.073Z,53.90
2023-05-24T05:30:36.794Z,53.79
2023-05-24T05:33:06.413Z,53.64
2023-05-24T05:35:35.176Z,53.51
2023-05-24T05:38:04.284Z,53.32
2023-05-24T05:40:33.044Z,53.15
2023-05-24T05:43:02.330Z,53.55
2023-05-24T05:45:31.246Z,53.21
2023-05-24T05:48:00.292Z,53.33
2023-05-24T05:50:28.937Z,53.11
2023-05-24T05:52:58.321Z,53.26
2023-05-24T05:55:26.997Z,52.74
2023-05-24T05:57:55.995Z,52.52
2023-05-24T06:00:24.657Z,52.19
2023-05-24T06:02:53.995Z,52.28
2023-05-24T06:05:22.808Z,51.68
2023-05-24T06:07:51.801Z,51.13
2023-05-24T06:10:20.503Z,51.15
2023-05-24T06:12:49.164Z,50.95
2023-05-24T06:15:17.689Z,50.79
2023-05-24T06:17:48.232Z,50.67
2023-05-24T06:20:17.339Z,50.65
2023-05-24T06:22:46.557Z,50.57
2023-05-24T06:25:19.443Z,50.58
2023-05-24T06:27:48.264Z,51.41
2023-05-24T06:30:16.848Z,51.26
2023-05-24T06:32:45.815Z,51.42
2023-05-24T06:35:14.470Z,51.63
2023-05-24T06:37:43.828Z,51.46
2023-05-24T06:40:13.213Z,51.57
2023-05-24T06:42:42.005Z,51.86
2023-05-24T06:45:11.439Z,51.57
2023-05-24T06:47:40.301Z,52.01
2023-05-24T06:50:09.654Z,52.39
2023-05-24T06:52:38.507Z,51.62
2023-05-24T06:55:07.320Z,51.16
2023-05-24T06:57:36.477Z,50.55
2023-05-24T07:00:10.162Z,50.23
2023-05-24T07:02:40.139Z,50.16
2023-05-24T07:05:12.749Z,49.90
2023-05-24T07:07:42.716Z,49.16
2023-05-24T07:10:11.861Z,49.26
2023-05-24T07:12:41.048Z,49.24
2023-05-24T07:15:10.115Z,48.93
2023-05-24T07:17:39.244Z,49.08
2023-05-24T07:20:11.419Z,48.84
2023-05-24T07:22:41.534Z,48.11
2023-05-24T07:25:10.595Z,48.06
2023-05-24T07:27:39.972Z,48.06
2023-05-24T07:30:19.765Z,48.28
2023-05-24T07:32:58.469Z,48.13
2023-05-24T07:35:29.033Z,48.61
2023-05-24T07:37:58.083Z,48.10
2023-05-24T07:40:26.839Z,47.50
2023-05-24T07:42:56.372Z,48.92
2023-05-24T07:45:25.322Z,50.06
2023-05-24T07:47:56.708Z,50.74
2023-05-24T07:50:26.928Z,51.06
2023-05-24T07:52:57.908Z,50.70
2023-05-24T07:55:28.166Z,51.05
2023-05-24T07:57:57.256Z,50.76
2023-05-24T08:00:26.077Z,50.03
2023-05-24T08:02:55.080Z,49.60
2023-05-24T08:05:24.205Z,49.19
2023-05-24T08:07:53.802Z,48.99
2023-05-24T08:10:22.467Z,49.50
2023-05-24T08:12:54.880Z,48.86
2023-05-24T08:15:23.796Z,48.14
2023-05-24T08:17:52.806Z,48.40
2023-05-24T08:20:21.701Z,48.34
2023-05-24T08:22:50.891Z,48.50
2023-05-24T08:25:20.231Z,48.32
2023-05-24T08:27:49.533Z,48.24
2023-05-24T08:30:18.630Z,49.62
2023-05-24T08:32:47.993Z,49.42
2023-05-24T08:35:21.551Z,49.44
2023-05-24T08:37:50.998Z,49.17
2023-05-24T08:40:19.797Z,49.73
2023-05-24T08:42:49.266Z,48.88
2023-05-24T08:45:18.180Z,48.59
2023-05-24T08:47:47.223Z,48.30
2023-05-24T08:50:15.962Z,48.00
2023-05-24T08:52:45.283Z,47.40
2023-05-24T08:55:13.983Z,47.42
2023-05-24T08:57:42.988Z,47.25
2023-05-24T09:00:13.287Z,47.27
2023-05-24T09:02:43.563Z,46.86
2023-05-24T09:05:14.714Z,46.98
2023-05-24T09:07:46.828Z,46.97
2023-05-24T09:10:15.921Z,46.72
2023-05-24T09:12:52.498Z,46.79
2023-05-24T09:15:24.443Z,46.47
2023-05-24T09:17:54.715Z,46.75
2023-05-24T09:20:23.656Z,46.56
2023-05-24T09:22:53.805Z,46.64
2023-05-24T09:25:22.796Z,46.41
2023-05-24T09:27:52.965Z,46.34
2023-05-24T09:30:22.017Z,46.31
2023-05-24T09:32:59.437Z,46.16
2023-05-24T09:35:28.946Z,45.87
2023-05-24T09:38:00.252Z,45.77
2023-05-24T09:40:29.954Z,45.89
2023-05-24T09:43:11.896Z,45.68
2023-05-24T09:45:47.528Z,45.46
2023-05-24T09:48:17.629Z,45.41
2023-05-24T09:50:57.649Z,45.64
2023-05-24T09:53:27.108Z,45.47
2023-05-24T09:55:56.397Z,45.39
2023-05-24T09:58:29.395Z,45.47
2023-05-24T10:01:06.760Z,45.46
2023-05-24T10:03:38.092Z,45.41
2023-05-24T10:06:11.718Z,45.45
2023-05-24T10:08:40.901Z,45.33
2023-05-24T10:11:09.866Z,45.58
2023-05-24T10:13:38.976Z,45.73
2023-05-24T10:16:07.677Z,45.59
2023-05-24T10:18:36.766Z,45.75
2023-05-24T10:21:09.902Z,45.73
2023-05-24T10:23:39.566Z,45.61
2023-05-24T10:26:11.990Z,45.47
2023-05-24T10:28:46.659Z,45.34
2023-05-24T10:31:27.181Z,45.42
2023-05-24T10:34:06.547Z,45.65
2023-05-24T10:36:37.341Z,45.09
2023-05-24T10:39:09.716Z,45.03
2023-05-24T10:41:44.724Z,44.26
2023-05-24T10:44:19.788Z,44.53
2023-05-24T10:47:08.905Z,44.51
2023-05-24T10:49:39.903Z,44.34
2023-05-24T10:52:10.055Z,44.22
2023-05-24T10:54:42.856Z,44.18
2023-05-24T10:57:15.805Z,44.37
2023-05-24T10:59:45.644Z,43.99
2023-05-24T11:02:15.226Z,44.26
2023-05-24T11:04:47.085Z,43.89
2023-05-24T11:07:16.321Z,44.22
2023-05-24T11:09:49.158Z,44.10
2023-05-24T11:12:18.764Z,44.58
2023-05-24T11:14:52.701Z,44.23
2023-05-24T11:17:23.124Z,42.88
2023-05-24T11:19:55.365Z,43.07
2023-05-24T11:22:25.888Z,43.10
2023-05-24T11:24:54.713Z,42.91
2023-05-24T11:27:23.272Z,43.39
2023-05-24T11:29:52.286Z,43.44
2023-05-24T11:32:22.085Z,43.50
2023-05-24T11:34:51.970Z,43.56
2023-05-24T11:37:28.642Z,43.92
2023-05-24T11:40:05.383Z,43.89
2023-05-24T11:42:33.951Z,43.81
2023-05-24T11:45:02.778Z,43.94
2023-05-24T11:47:31.350Z,43.50
2023-05-24T11:50:00.399Z,42.99
2023-05-24T11:52:29.219Z,43.30
2023-05-24T11:54:58.107Z,43.32
2023-05-24T11:57:40.615Z,42.91
2023-05-24T12:00:17.120Z,42.79
2023-05-24T12:02:49.261Z,42.43
2023-05-24T12:05:19.638Z,42.75
2023-05-24T12:07:51.459Z,43.59
2023-05-24T12:10:22.920Z,43.76
2023-05-24T12:12:52.128Z,43.50
2023-05-24T12:15:22.608Z,43.66
2023-05-24T12:17:51.698Z,43.50
2023-05-24T12:20:21.855Z,43.71
2023-05-24T12:22:53.920Z,43.79
2023-05-24T12:25:27.429Z,43.55
2023-05-24T12:27:56.785Z,43.64
2023-05-24T12:30:28.560Z,43.21
2023-05-24T12:32:57.944Z,42.95
2023-05-24T12:35:26.946Z,42.79
2023-05-24T12:38:01.703Z,42.89
2023-05-24T12:40:33.776Z,43.00
2023-05-24T12:43:04.090Z,42.91
2023-05-24T12:45:33.255Z,42.83
2023-05-24T12:48:03.219Z,42.51
2023-05-24T12:50:32.870Z,42.67
2023-05-24T12:53:01.488Z,42.54
2023-05-24T12:55:30.813Z,42.52
2023-05-24T12:58:01.940Z,42.48
2023-05-24T13:00:31.755Z,42.11
2023-05-24T13:03:00.439Z,42.02
2023-05-24T13:05:32.348Z,42.27
2023-05-24T13:08:04.278Z,42.57
2023-05-24T13:10:35.322Z,42.85
2023-05-24T13:13:05.516Z,42.78
2023-05-24T13:15:35.086Z,43.07
2023-05-24T13:18:05.645Z,42.86
2023-05-24T13:20:34.950Z,43.16
2023-05-24T13:23:03.666Z,43.51
2023-05-24T13:25:34.069Z,43.69
2023-05-24T13:28:02.801Z,43.79
2023-05-24T13:30:34.241Z,44.04
2023-05-24T13:33:02.952Z,43.79
2023-05-24T13:35:33.453Z,43.53
2023-05-24T13:38:02.113Z,43.00
2023-05-24T13:40:31.027Z,42.26
2023-05-24T13:42:59.957Z,42.46
2023-05-24T13:45:30.562Z,42.54
2023-05-24T13:48:04.333Z,42.10
2023-05-24T13:50:36.810Z,41.95
2023-05-24T13:53:06.128Z,41.52
2023-05-24T13:55:36.304Z,41.23
2023-05-24T13:58:05.417Z,41.20
2023-05-24T14:00:36.368Z,41.24
2023-05-24T14:03:06.398Z,41.04
2023-05-24T14:05:35.948Z,40.69
2023-05-24T14:08:07.021Z,40.59
2023-05-24T14:10:37.306Z,40.59
2023-05-24T14:15:39.095Z,40.87
2023-05-24T14:18:08.860Z,40.92
2023-05-24T14:20:38.766Z,40.84
2023-05-24T14:23:08.251Z,40.74
2023-05-24T14:25:38.044Z,40.82
2023-05-24T14:28:08.776Z,40.32
2023-05-24T14:30:38.285Z,40.57
2023-05-24T14:33:08.622Z,40.52
2023-05-24T14:35:41.457Z,40.74
2023-05-24T14:38:11.636Z,40.97
2023-05-24T14:40:41.146Z,40.84
2023-05-24T14:43:11.055Z,41.29
2023-05-24T14:45:42.279Z,41.50
2023-05-24T14:48:12.538Z,41.40
2023-05-24T14:50:42.185Z,41.42
2023-05-24T14:53:13.973Z,41.38
2023-05-24T14:55:44.044Z,41.09
2023-05-24T14:58:13.365Z,41.00
2023-05-24T15:00:43.284Z,40.85
2023-05-24T15:03:14.755Z,40.85
2023-05-24T15:05:44.131Z,40.79
2023-05-24T15:08:12.971Z,40.75
2023-05-24T15:10:45.182Z,40.90
2023-05-24T15:13:14.222Z,40.64
2023-05-24T15:15:43.538Z,40.54
2023-05-24T15:18:12.287Z,40.10
2023-05-24T15:20:41.720Z,39.76
2023-05-24T15:23:11.087Z,39.46
2023-05-24T15:25:41.205Z,39.28
2023-05-24T15:28:13.158Z,39.34
2023-05-24T15:30:44.843Z,39.38
2023-05-24T15:33:14.188Z,38.76
2023-05-24T15:35:43.474Z,39.17
2023-05-24T15:38:12.263Z,39.39
2023-05-24T15:40:42.911Z,39.28
2023-05-24T15:43:11.852Z,39.57
2023-05-24T15:45:40.812Z,39.49
2023-05-24T15:48:10.644Z,39.51
2023-05-24T15:51:03.761Z,39.43
2023-05-24T15:53:28.963Z,39.38
2023-05-24T15:55:57.933Z,39.41
2023-05-24T15:58:26.910Z,39.40
2023-05-24T16:00:56.058Z,39.67
2023-05-24T16:03:25.245Z,39.88
2023-05-24T16:05:54.430Z,40.35
2023-05-24T16:08:28.138Z,40.18
2023-05-24T16:10:57.954Z,40.49
2023-05-24T16:13:27.127Z,40.94
2023-05-24T16:15:56.668Z,40.86
2023-05-24T16:18:27.288Z,41.29
2023-05-24T16:20:57.065Z,41.52
2023-05-24T16:23:25.993Z,41.71
2023-05-24T16:25:55.306Z,41.38
2023-05-24T16:28:25.150Z,41.30
2023-05-24T16:30:56.475Z,41.82
2023-05-24T16:33:25.614Z,42.44
2023-05-24T16:36:00.500Z,42.64
2023-05-24T16:38:32.869Z,42.73
2023-05-24T16:41:02.308Z,42.56
2023-05-24T16:43:34.559Z,42.85
2023-05-24T16:46:05.064Z,42.71
2023-05-24T16:48:34.251Z,42.47
2023-05-24T16:51:05.002Z,42.45
2023-05-24T16:53:34.074Z,43.33
2023-05-24T16:56:03.510Z,43.08
2023-05-24T16:58:32.170Z,43.88
2023-05-24T17:01:03.188Z,44.55
2023-05-24T17:03:34.689Z,45.24
2023-05-24T17:06:07.171Z,45.59
2023-05-24T17:08:36.752Z,46.40
2023-05-24T17:11:06.610Z,46.35
2023-05-24T17:13:36.754Z,47.05
2023-05-24T17:16:06.680Z,47.10
2023-05-24T17:18:36.204Z,47.32
2023-05-24T17:21:06.078Z,47.24
2023-05-24T17:23:37.720Z,47.08
2023-05-24T17:26:14.943Z,48.38
2023-05-24T17:28:46.637Z,48.91
2023-05-24T17:31:17.381Z,49.37
2023-05-24T17:33:46.789Z,49.48
2023-05-24T17:36:19.039Z,49.55
2023-05-24T17:38:47.839Z,49.33
2023-05-24T17:41:18.385Z,50.02
2023-05-24T17:43:48.194Z,49.80
2023-05-24T17:46:18.100Z,49.54
2023-05-24T17:48:48.138Z,50.05
2023-05-24T17:51:21.087Z,49.57
2023-05-24T17:53:51.614Z,50.00
2023-05-24T17:56:23.479Z,50.25
2023-05-24T17:58:52.558Z,50.63
2023-05-24T18:01:23.927Z,50.18
2023-05-24T18:03:53.096Z,49.77
2023-05-24T18:06:23.537Z,49.82
2023-05-24T18:08:54.093Z,49.53
2023-05-24T18:11:24.739Z,50.01
2023-05-24T18:13:54.809Z,49.32
2023-05-24T18:16:27.097Z,48.59
2023-05-24T18:18:56.430Z,48.48
2023-05-24T18:21:28.876Z,48.41
2023-05-24T18:23:59.364Z,49.00
2023-05-24T18:26:28.978Z,49.58
2023-05-24T18:28:59.305Z,49.39
2023-05-24T18:31:28.258Z,49.34
2023-05-24T18:33:57.857Z,49.09
2023-05-24T18:36:29.139Z,48.98
2023-05-24T18:38:58.542Z,48.93
2023-05-24T18:41:32.566Z,48.22
2023-05-24T18:44:07.869Z,47.79
2023-05-24T18:46:39.503Z,48.00
2023-05-24T18:49:11.245Z,47.98
2023-05-24T18:51:44.103Z,48.04
2023-05-24T18:54:14.673Z,48.17
2023-05-24T18:56:47.330Z,48.21
2023-05-24T18:59:18.712Z,47.78
2023-05-24T19:01:49.858Z,47.64
2023-05-24T19:04:18.720Z,47.66
2023-05-24T19:06:54.598Z,47.95
2023-05-24T19:09:25.095Z,47.87
2023-05-24T19:11:59.523Z,47.99
2023-05-24T19:14:31.331Z,47.69
2023-05-24T19:17:02.400Z,47.92
2023-05-24T19:19:33.882Z,48.14
2023-05-24T19:22:04.007Z,48.04
2023-05-24T19:24:35.216Z,48.40
2023-05-24T19:29:40.113Z,48.99
2023-05-24T19:32:11.922Z,49.11
2023-05-24T19:34:45.421Z,49.66
2023-05-24T19:37:21.097Z,49.92
2023-05-24T19:39:51.715Z,50.08
2023-05-24T19:42:23.181Z,50.40
2023-05-24T19:44:54.234Z,50.81
2023-05-24T19:47:26.015Z,50.75
2023-05-24T19:50:00.283Z,51.00
2023-05-24T19:52:38.838Z,51.00
2023-05-24T19:55:28.012Z,51.06
2023-05-24T19:58:02.538Z,50.91
2023-05-24T20:00:36.081Z,50.86
2023-05-24T20:06:24.792Z,50.67
2023-05-24T21:03:57.785Z,50.61
2023-05-24T21:06:50.426Z,50.69
2023-05-24T21:09:26.078Z,50.44
2023-05-24T21:12:45.557Z,50.36
2023-05-24T21:15:33.185Z,50.17
2023-05-24T21:18:05.656Z,49.69
2023-05-24T21:20:51.535Z,49.58
2023-05-24T21:24:04.124Z,49.20
2023-05-24T21:26:32.945Z,48.80
2023-05-24T21:29:22.356Z,48.67
2023-05-24T21:32:12.085Z,48.28
2023-05-24T21:34:46.177Z,48.23
2023-05-24T21:37:40.544Z,48.37
2023-05-24T21:40:37.155Z,48.18
2023-05-24T21:43:12.563Z,48.29
2023-05-24T21:45:42.354Z,48.39
2023-05-24T21:48:21.685Z,48.53
2023-05-24T21:50:51.734Z,48.80
2023-05-24T21:53:20.525Z,48.75
2023-05-24T21:55:55.308Z,48.81
2023-05-24T21:58:38.868Z,48.85
2023-05-24T22:01:08.986Z,49.00
2023-05-24T22:03:44.554Z,49.48
2023-05-24T22:06:44.421Z,49.78
2023-05-24T22:09:25.594Z,50.42
2023-05-24T22:11:56.023Z,50.78
2023-05-24T22:14:27.683Z,50.89
2023-05-24T22:17:14.439Z,51.03
2023-05-24T22:20:01.530Z,50.91
2023-05-24T22:26:17.251Z,50.12
2023-05-24T22:28:52.669Z,49.92
2023-05-24T22:31:25.739Z,49.88
2023-05-24T22:33:59.273Z,49.59
2023-05-24T22:36:39.755Z,49.66
2023-05-24T22:39:14.712Z,49.42
2023-05-24T22:41:45.177Z,49.64
2023-05-24T22:44:17.576Z,49.22
2023-05-24T22:46:54.831Z,48.88
2023-05-24T22:49:36.705Z,48.47
2023-05-24T22:52:07.304Z,48.60
2023-05-24T22:54:49.596Z,48.55
2023-05-24T22:57:23.800Z,48.45
2023-05-24T23:00:08.566Z,48.32
2023-05-24T23:03:02.458Z,48.31
2023-05-24T23:05:41.319Z,48.17
2023-05-24T23:08:15.492Z,48.00
2023-05-24T23:10:49.362Z,47.55
2023-05-24T23:13:53.365Z,47.42
2023-05-24T23:16:25.939Z,47.30
2023-05-24T23:19:21.266Z,47.20
2023-05-24T23:22:11.426Z,46.94
2023-05-24T23:24:42.829Z,47.00
2023-05-24T23:27:12.762Z,46.75
2023-05-24T23:29:42.509Z,46.80
2023-05-24T23:32:19.259Z,47.25
2023-05-24T23:34:56.569Z,47.46
2023-05-24T23:37:39.744Z,47.33
2023-05-24T23:40:34.341Z,47.41
2023-05-24T23:43:07.443Z,47.61
2023-05-24T23:45:40.160Z,47.63
2023-05-24T23:48:30.201Z,47.79
2023-05-24T23:58:56.079Z,48.88
